Time;durP1;ratioP1;P1;durP2;ratioP2;P2;SDS_P1;SDS_P2;PMS_P1;PMS_P2;Temp;Humidity;BMP_temperature;BMP_pressure;BME280_temperature;BME280_humidity;BME280_pressure;Samples;Min_cycle;Max_cycle;Signal;HPM_P1;HPM_P2
2024/01/04 00:00:01;;;;;;;;;;;;;;;21.80;39.79;99268.38;5136377;28;19963;-47
2024/01/04 00:02:30;;;;;;;;;;;;;;;21.80;39.55;99270.25;5136278;28;20306;-47
2024/01/04 00:04:55;;;;;;;;;;;;;;;21.79;39.87;99282.09;5143216;28;19960;-50
2024/01/04 00:07:20;;;;;;;;;;;;;;;21.77;39.83;99281.53;5141322;28;19960;-48
2024/01/04 00:09:46;;;;;;;;;;;;;;;21.75;39.80;99289.03;5136924;28;19922;-51
2024/01/04 00:12:12;;;;;;;;;;;;;;;21.73;39.62;99291.97;5138908;28;19911;-48
2024/01/04 00:14:37;;;;;;;;;;;;;;;21.71;39.97;99299.50;5140228;28;19911;-47
2024/01/04 00:17:02;;;;;;;;;;;;;;;21.70;39.95;99308.63;5136307;28;19911;-48
2024/01/04 00:19:27;;;;;;;;;;;;;;;21.67;39.93;99307.22;5137461;28;19911;-49
2024/01/04 00:21:52;;;;;;;;;;;;;;;21.66;40.08;99316.41;5142780;28;19911;-51
2024/01/04 00:24:18;;;;;;;;;;;;;;;21.64;39.91;99314.97;5139609;28;20298;-50
2024/01/04 00:26:43;;;;;;;;;;;;;;;21.62;39.82;99325.16;5135881;28;19959;-50
2024/01/04 00:29:08;;;;;;;;;;;;;;;21.60;39.97;99335.41;5135703;28;20405;-51
2024/01/04 00:31:33;;;;;;;;;;;;;;;21.59;40.04;99334.56;5138989;28;19952;-47
2024/01/04 00:33:59;;;;;;;;;;;;;;;21.57;40.00;99344.78;5138715;27;19912;-50
2024/01/04 00:36:24;;;;;;;;;;;;;;;21.56;39.99;99351.22;5138143;27;19911;-47
2024/01/04 00:38:49;;;;;;;;;;;;;;;21.55;40.00;99349.59;5141351;27;20347;-48
2024/01/04 00:41:15;;;;;;;;;;;;;;;21.54;40.06;99349.81;5136422;27;19919;-49
2024/01/04 00:43:42;;;;;;;;;;;;;;;21.52;40.00;99360.03;5122388;27;19923;-51
2024/01/04 00:46:08;;;;;;;;;;;;;;;21.51;39.93;99367.31;5144451;27;19946;-49
2024/01/04 00:48:33;;;;;;;;;;;;;;;21.49;39.92;99373.97;5138621;27;19912;-47
2024/01/04 00:51:01;;;;;;;;;;;;;;;21.48;40.03;99375.03;5144698;27;19915;-48
2024/01/04 00:53:26;;;;;;;;;;;;;;;21.46;39.85;99388.78;5144617;27;20342;-49
2024/01/04 00:55:51;;;;;;;;;;;;;;;21.44;39.82;99391.69;5139979;27;19946;-48
2024/01/04 00:58:17;;;;;;;;;;;;;;;21.42;39.83;99393.81;5133759;27;19923;-48
2024/01/04 01:00:43;;;;;;;;;;;;;;;21.41;40.08;99405.69;5139060;27;19953;-49
2024/01/04 01:03:08;;;;;;;;;;;;;;;21.39;40.11;99415.06;5135428;27;19912;-48
2024/01/04 01:05:33;;;;;;;;;;;;;;;21.37;40.26;99422.56;5142017;27;19915;-48
2024/01/04 01:08:01;;;;;;;;;;;;;;;21.36;40.08;99432.53;5142006;27;19911;-51
2024/01/04 01:10:26;;;;;;;;;;;;;;;21.35;40.33;99432.75;5127217;27;20509;-45
2024/01/04 01:12:51;;;;;;;;;;;;;;;21.33;40.11;99432.16;5136626;27;19938;-45
2024/01/04 01:15:16;;;;;;;;;;;;;;;21.31;40.28;99445.84;5134343;27;20370;-48
2024/01/04 01:17:42;;;;;;;;;;;;;;;21.29;40.18;99449.84;5135467;27;20251;-49
2024/01/04 01:20:08;;;;;;;;;;;;;;;21.28;40.20;99453.56;5140123;27;19918;-48
2024/01/04 01:22:33;;;;;;;;;;;;;;;21.27;40.27;99466.25;5145720;27;19911;-48
2024/01/04 01:24:58;;;;;;;;;;;;;;;21.25;40.19;99462.97;5140274;27;19916;-46
2024/01/04 01:27:24;;;;;;;;;;;;;;;21.23;40.10;99476.69;5140985;27;20362;-46
2024/01/04 01:29:49;;;;;;;;;;;;;;;21.21;40.34;99477.97;5142944;27;19911;-47
2024/01/04 01:32:14;;;;;;;;;;;;;;;21.20;40.30;99482.53;5140648;27;19941;-51
2024/01/04 01:34:41;;;;;;;;;;;;;;;21.18;40.38;99483.78;5116457;27;19912;-50
2024/01/04 01:37:06;;;;;;;;;;;;;;;21.17;40.48;99490.25;5137905;27;19912;-53
2024/01/04 01:39:32;;;;;;;;;;;;;;;21.16;40.51;99499.41;5144041;27;19922;-53
2024/01/04 01:41:57;;;;;;;;;;;;;;;21.15;40.45;99500.44;5139049;27;19919;-49
2024/01/04 01:44:22;;;;;;;;;;;;;;;21.13;40.52;99502.56;5138724;27;19912;-52
2024/01/04 01:46:47;;;;;;;;;;;;;;;21.13;40.24;99510.66;5145213;27;19922;-50
2024/01/04 01:49:12;;;;;;;;;;;;;;;21.12;40.44;99511.72;5138363;27;19919;-51
2024/01/04 01:51:37;;;;;;;;;;;;;;;21.11;40.21;99520.84;5125945;27;20319;-47
2024/01/04 01:54:05;;;;;;;;;;;;;;;21.10;40.46;99530.81;5142629;27;19987;-48
2024/01/04 01:56:31;;;;;;;;;;;;;;;21.08;40.45;99527.53;5139572;27;19919;-48
2024/01/04 01:58:57;;;;;;;;;;;;;;;21.06;40.52;99524.19;5124994;27;19923;-49
2024/01/04 02:01:22;;;;;;;;;;;;;;;21.05;40.49;99536.06;5127515;27;19911;-47
2024/01/04 02:03:47;;;;;;;;;;;;;;;21.04;40.49;99531.69;5134161;27;19964;-49
2024/01/04 02:06:13;;;;;;;;;;;;;;;21.03;40.61;99543.56;5128046;27;20002;-52
2024/01/04 02:08:38;;;;;;;;;;;;;;;21.01;40.58;99544.81;5140249;27;19911;-48
2024/01/04 02:11:03;;;;;;;;;;;;;;;20.99;40.57;99544.22;5139537;27;19911;-50
2024/01/04 02:13:28;;;;;;;;;;;;;;;20.99;40.65;99549.63;5136153;27;19912;-46
2024/01/04 02:15:53;;;;;;;;;;;;;;;20.97;40.63;99556.03;5142881;27;20345;-48
2024/01/04 02:18:18;;;;;;;;;;;;;;;20.95;40.55;99560.84;5134119;27;20315;-48
2024/01/04 02:20:44;;;;;;;;;;;;;;;20.94;40.42;99570.00;5129283;27;19911;-46
2024/01/04 02:23:14;;;;;;;;;;;;;;;20.92;40.61;99565.84;5137560;27;19911;-47
2024/01/04 02:25:39;;;;;;;;;;;;;;;20.91;40.58;99577.69;5143490;27;19912;-47
2024/01/04 02:28:05;;;;;;;;;;;;;;;20.88;40.74;99578.13;5135358;27;19920;-48
2024/01/04 02:30:30;;;;;;;;;;;;;;;20.88;40.70;99583.53;5137934;27;19912;-49
2024/01/04 02:32:55;;;;;;;;;;;;;;;20.87;40.45;99589.97;5139959;27;19940;-49
2024/01/04 02:35:20;;;;;;;;;;;;;;;20.86;40.49;99599.13;5135640;27;19953;-50
2024/01/04 02:37:45;;;;;;;;;;;;;;;20.85;40.69;99589.34;5134380;27;19982;-47
2024/01/04 02:40:11;;;;;;;;;;;;;;;20.83;40.45;99594.97;5120085;27;19915;-46
2024/01/04 02:42:36;;;;;;;;;;;;;;;20.82;40.75;99595.19;5132727;27;19911;-48
2024/01/04 02:45:01;;;;;;;;;;;;;;;20.81;40.58;99605.16;5137737;27;20022;-47
2024/01/04 02:47:26;;;;;;;;;;;;;;;20.80;40.69;99611.59;5143811;27;20010;-49
2024/01/04 02:49:52;;;;;;;;;;;;;;;20.78;40.75;99621.81;5140468;27;20116;-51
2024/01/04 02:52:17;;;;;;;;;;;;;;;20.76;40.50;99620.34;5133654;27;19919;-47
2024/01/04 02:54:42;;;;;;;;;;;;;;;20.75;40.56;99621.38;5117429;27;19915;-51
2024/01/04 02:57:07;;;;;;;;;;;;;;;20.75;40.43;99629.50;5133648;27;19927;-47
2024/01/04 02:59:32;;;;;;;;;;;;;;;20.72;40.53;99644.25;5133782;27;19942;-48
2024/01/04 03:01:58;;;;;;;;;;;;;;;20.71;40.92;99646.13;5133525;27;19912;-50
2024/01/04 03:04:23;;;;;;;;;;;;;;;20.70;40.60;99649.03;5136724;27;19919;-46
2024/01/04 03:06:49;;;;;;;;;;;;;;;20.68;40.49;99645.69;5137820;27;19915;-51
2024/01/04 03:09:14;;;;;;;;;;;;;;;20.67;40.81;99658.38;5135943;27;20392;-50
2024/01/04 03:11:39;;;;;;;;;;;;;;;20.65;40.83;99655.06;5139627;27;19911;-48
2024/01/04 03:14:05;;;;;;;;;;;;;;;20.64;40.68;99661.50;5131224;27;19930;-50
2024/01/04 03:16:30;;;;;;;;;;;;;;;20.63;40.89;99662.53;5126442;28;19912;-47
2024/01/04 03:18:55;;;;;;;;;;;;;;;20.62;40.96;99677.09;5141138;27;19911;-47
2024/01/04 03:21:20;;;;;;;;;;;;;;;20.61;40.81;99671.91;5138863;28;19919;-50
2024/01/04 03:23:45;;;;;;;;;;;;;;;20.59;40.70;99672.09;5136380;28;19911;-48
2024/01/04 03:26:12;;;;;;;;;;;;;;;20.58;40.69;99670.44;5139365;28;19922;-47
2024/01/04 03:28:37;;;;;;;;;;;;;;;20.58;40.96;99683.13;5139101;28;19915;-50
2024/01/04 03:31:02;;;;;;;;;;;;;;;20.55;40.88;99670.84;5135444;28;20259;-51
2024/01/04 03:33:27;;;;;;;;;;;;;;;20.55;40.68;99672.72;5142738;28;19911;-46
2024/01/04 03:35:53;;;;;;;;;;;;;;;20.53;40.99;99670.25;5137831;28;19923;-52
2024/01/04 03:38:18;;;;;;;;;;;;;;;20.51;40.58;99668.78;5135825;28;20667;-51
2024/01/04 03:40:43;;;;;;;;;;;;;;;20.50;40.92;99678.75;5134076;27;19915;-51
2024/01/04 03:43:08;;;;;;;;;;;;;;;20.50;40.90;99688.72;5139841;28;19942;-48
2024/01/04 03:45:33;;;;;;;;;;;;;;;20.49;40.86;99684.38;5135250;28;19911;-50
2024/01/04 03:47:59;;;;;;;;;;;;;;;20.46;40.61;99690.97;5139736;28;19911;-51
2024/01/04 03:50:24;;;;;;;;;;;;;;;20.45;40.75;99703.66;5137771;28;20377;-50
2024/01/04 03:52:49;;;;;;;;;;;;;;;20.43;40.74;99705.75;5136539;28;19919;-49
2024/01/04 03:55:15;;;;;;;;;;;;;;;20.42;40.84;99705.94;5138349;28;19943;-50
2024/01/04 03:57:42;;;;;;;;;;;;;;;20.40;40.55;99714.25;5136497;28;19924;-47
2024/01/04 04:00:08;;;;;;;;;;;;;;;20.39;40.62;99720.69;5137323;28;20273;-48
2024/01/04 04:02:33;;;;;;;;;;;;;;;20.38;40.81;99720.88;5131659;28;19911;-51
2024/01/04 04:04:58;;;;;;;;;;;;;;;20.39;40.56;99727.94;5142033;28;19918;-50
2024/01/04 04:07:23;;;;;;;;;;;;;;;20.37;40.51;99732.72;5137070;27;19943;-49
2024/01/04 04:09:48;;;;;;;;;;;;;;;20.35;40.70;99735.66;5142191;27;19955;-51
2024/01/04 04:12:14;;;;;;;;;;;;;;;20.33;40.52;99737.72;5141935;27;19911;-50
2024/01/04 04:14:40;;;;;;;;;;;;;;;20.31;40.59;99734.41;5142759;27;19912;-46
2024/01/04 04:17:05;;;;;;;;;;;;;;;20.30;40.62;99745.38;5135438;27;19943;-49
2024/01/04 04:19:30;;;;;;;;;;;;;;;20.29;40.68;99738.31;5134406;27;20370;-52
2024/01/04 04:21:56;;;;;;;;;;;;;;;20.27;40.48;99735.00;5139091;27;19920;-49
2024/01/04 04:24:21;;;;;;;;;;;;;;;20.25;40.73;99746.00;5137282;27;19919;-51
2024/01/04 04:26:46;;;;;;;;;;;;;;;20.25;40.60;99751.41;5144469;27;19912;-52
2024/01/04 04:29:11;;;;;;;;;;;;;;;20.22;40.51;99758.06;5141221;27;19915;-52
2024/01/04 04:31:36;;;;;;;;;;;;;;;20.20;40.54;99768.22;5138594;27;19919;-51
2024/01/04 04:34:02;;;;;;;;;;;;;;;20.20;40.52;99770.06;5135431;27;19972;-50
2024/01/04 04:36:27;;;;;;;;;;;;;;;20.19;40.77;99781.91;5132917;27;19935;-48
2024/01/04 04:38:52;;;;;;;;;;;;;;;20.18;40.85;99780.25;5138666;27;19926;-47
2024/01/04 04:41:17;;;;;;;;;;;;;;;20.16;40.84;99788.53;5141557;27;19934;-46
2024/01/04 04:43:42;;;;;;;;;;;;;;;20.15;40.60;99794.16;5142781;27;19927;-46
2024/01/04 04:46:09;;;;;;;;;;;;;;;20.13;40.56;99791.63;5140712;27;19918;-49
2024/01/04 04:48:35;;;;;;;;;;;;;;;20.13;40.49;99793.50;5136786;27;19964;-48
2024/01/04 04:51:00;;;;;;;;;;;;;;;20.13;40.62;99801.59;5146123;27;19915;-47
2024/01/04 04:53:25;;;;;;;;;;;;;;;20.11;40.79;99795.59;5139559;27;19919;-48
2024/01/04 04:55:51;;;;;;;;;;;;;;;20.09;40.68;99803.03;5137671;27;19915;-48
2024/01/04 04:58:16;;;;;;;;;;;;;;;20.08;40.84;99794.13;5140328;27;19959;-49
2024/01/04 05:00:41;;;;;;;;;;;;;;;20.08;40.47;99804.91;5144331;27;19915;-50
2024/01/04 05:03:06;;;;;;;;;;;;;;;20.06;40.89;99815.09;5136643;27;19944;-51
2024/01/04 05:05:33;;;;;;;;;;;;;;;20.05;40.79;99808.03;5144101;27;19963;-50
2024/01/04 05:07:58;;;;;;;;;;;;;;;20.05;40.64;99823.38;5142620;27;19947;-47
2024/01/04 05:10:23;;;;;;;;;;;;;;;20.04;40.59;99830.63;5138521;27;19912;-50
2024/01/04 05:12:48;;;;;;;;;;;;;;;20.03;40.94;99825.47;5142217;27;19967;-47
2024/01/04 05:15:13;;;;;;;;;;;;;;;20.01;40.69;99825.66;5142780;27;19962;-51
2024/01/04 05:17:39;;;;;;;;;;;;;;;20.00;40.77;99823.16;5139762;27;20381;-46
2024/01/04 05:20:04;;;;;;;;;;;;;;;20.00;40.79;99823.97;5137869;27;19912;-47
2024/01/04 05:22:29;;;;;;;;;;;;;;;19.98;40.94;99835.00;5145032;27;19923;-48
2024/01/04 05:24:55;;;;;;;;;;;;;;;19.98;40.77;99839.56;5136585;27;19911;-47
2024/01/04 05:27:20;;;;;;;;;;;;;;;19.97;40.90;99841.44;5119558;27;19915;-46
2024/01/04 05:29:45;;;;;;;;;;;;;;;19.97;40.92;99838.72;5138352;27;19919;-47
2024/01/04 05:32:11;;;;;;;;;;;;;;;19.97;40.90;99848.69;5140921;27;19975;-49
2024/01/04 05:34:36;;;;;;;;;;;;;;;19.96;41.04;99849.69;5138054;27;19972;-46
2024/01/04 05:37:01;;;;;;;;;;;;;;;19.97;40.94;99868.41;5136401;27;19915;-49
2024/01/04 05:39:27;;;;;;;;;;;;;;;19.96;41.23;99869.44;5140698;27;19916;-51
2024/01/04 05:41:52;;;;;;;;;;;;;;;19.98;41.08;99871.94;5134458;27;19916;-48
2024/01/04 05:44:17;;;;;;;;;;;;;;;19.98;40.92;99878.16;5140422;27;20285;-51
2024/01/04 05:46:42;;;;;;;;;;;;;;;20.00;41.08;99883.34;5136665;27;19964;-46
2024/01/04 05:49:08;;;;;;;;;;;;;;;20.02;41.29;99888.56;5134307;27;19984;-45
2024/01/04 05:51:33;;;;;;;;;;;;;;;20.03;41.40;99891.03;5142069;27;19922;-46
2024/01/04 05:53:58;;;;;;;;;;;;;;;20.05;41.48;99896.22;5132692;27;19923;-51
2024/01/04 05:56:23;;;;;;;;;;;;;;;20.07;41.38;99905.78;5133245;27;19916;-50
2024/01/04 05:58:48;;;;;;;;;;;;;;;20.08;41.67;99910.16;5134447;27;20359;-48
2024/01/04 06:01:14;;;;;;;;;;;;;;;20.11;41.70;99912.47;5132664;27;19915;-48
2024/01/04 06:03:39;;;;;;;;;;;;;;;20.13;41.49;99904.97;5134731;27;19911;-48
2024/01/04 06:06:04;;;;;;;;;;;;;;;20.15;41.70;99921.81;5131334;27;20266;-48
2024/01/04 06:08:30;;;;;;;;;;;;;;;20.19;41.56;99924.97;5109122;27;19911;-47
2024/01/04 06:10:55;;;;;;;;;;;;;;;20.21;41.68;99928.28;5130359;27;19916;-47
2024/01/04 06:13:25;;;;;;;;;;;;;;;20.23;41.69;99927.06;5132617;27;19912;-47
2024/01/04 06:15:52;;;;;;;;;;;;;;;20.26;41.57;99927.66;5134155;27;19919;-48
2024/01/04 06:18:17;;;;;;;;;;;;;;;20.29;41.72;99932.66;5132635;27;20010;-46
2024/01/04 06:20:43;;;;;;;;;;;;;;;20.30;41.73;99935.16;5133959;27;20452;-49
2024/01/04 06:23:08;;;;;;;;;;;;;;;20.33;41.49;99937.47;5131079;27;19946;-46
2024/01/04 06:25:33;;;;;;;;;;;;;;;20.36;41.37;99945.16;5133731;27;19912;-45
2024/01/04 06:27:58;;;;;;;;;;;;;;;20.40;41.32;99951.00;5133115;27;19919;-48
2024/01/04 06:30:24;;;;;;;;;;;;;;;20.42;41.46;99944.34;5132123;27;19912;-46
2024/01/04 06:32:49;;;;;;;;;;;;;;;20.45;41.45;99959.31;5134115;27;20014;-48
2024/01/04 06:35:14;;;;;;;;;;;;;;;20.49;41.62;99959.78;5129424;27;19915;-50
2024/01/04 06:37:39;;;;;;;;;;;;;;;20.52;41.48;99972.88;5131331;27;19969;-47
2024/01/04 06:40:07;;;;;;;;;;;;;;;20.54;41.41;99968.94;5129250;27;19926;-48
2024/01/04 06:42:33;;;;;;;;;;;;;;;20.57;41.49;99973.13;5130493;27;19923;-46
2024/01/04 06:44:58;;;;;;;;;;;;;;;20.59;41.41;99973.72;5130074;27;19904;-45
2024/01/04 06:47:23;;;;;;;;;;;;;;;20.62;41.22;99995.78;5130368;27;19911;-46
2024/01/04 06:49:48;;;;;;;;;;;;;;;20.65;41.27;99981.03;5130283;27;20286;-45
2024/01/04 06:52:14;;;;;;;;;;;;;;;20.68;41.41;99988.72;5125341;27;20658;-51
2024/01/04 06:54:39;;;;;;;;;;;;;;;20.70;41.15;99984.78;5132762;27;19938;-47
2024/01/04 06:57:06;;;;;;;;;;;;;;;20.72;40.98;99990.81;5130614;27;19928;-49
2024/01/04 06:59:31;;;;;;;;;;;;;;;20.76;41.15;99998.53;5132572;27;19920;-50
2024/01/04 07:01:58;;;;;;;;;;;;;;;20.78;40.88;99999.16;5131291;27;20316;-51
2024/01/04 07:04:23;;;;;;;;;;;;;;;20.80;41.17;99997.09;5130653;27;20324;-47
2024/01/04 07:06:48;;;;;;;;;;;;;;;20.82;41.10;100003.13;5128371;27;19912;-48
2024/01/04 07:09:14;;;;;;;;;;;;;;;20.85;41.03;100013.50;5133242;27;19915;-48
2024/01/04 07:11:39;;;;;;;;;;;;;;;20.87;41.02;100014.97;5133564;27;19912;-49
2024/01/04 07:14:04;;;;;;;;;;;;;;;20.90;40.76;100017.28;5131808;27;19916;-47
2024/01/04 07:16:29;;;;;;;;;;;;;;;20.92;40.87;100026.00;5133688;27;19915;-48
2024/01/04 07:18:55;;;;;;;;;;;;;;;20.93;40.85;100019.56;5130689;27;19916;-46
2024/01/04 07:21:20;;;;;;;;;;;;;;;20.97;40.53;100022.69;5130630;28;19915;-48
2024/01/04 07:23:46;;;;;;;;;;;;;;;21.00;40.62;100026.88;5130885;28;19916;-46
2024/01/04 07:26:11;;;;;;;;;;;;;;;21.01;40.49;100031.22;5130216;28;19924;-51
2024/01/04 07:28:36;;;;;;;;;;;;;;;21.01;40.87;100036.63;5133524;28;19969;-47
2024/01/04 07:31:01;;;;;;;;;;;;;;;21.00;40.74;100037.69;5134563;28;20805;-47
2024/01/04 07:33:27;;;;;;;;;;;;;;;21.02;40.94;100049.09;5131521;28;19933;-49
2024/01/04 07:35:52;;;;;;;;;;;;;;;21.02;40.74;100047.22;5130714;28;19923;-44
2024/01/04 07:38:17;;;;;;;;;;;;;;;21.03;41.06;100051.63;5131592;28;19920;-46
2024/01/04 07:40:42;;;;;;;;;;;;;;;21.04;40.87;100055.97;5136628;28;19915;-47
2024/01/04 07:43:08;;;;;;;;;;;;;;;21.08;40.85;100065.34;5132740;27;19920;-44
2024/01/04 07:45:33;;;;;;;;;;;;;;;21.10;40.69;100074.06;5139106;27;19943;-47
2024/01/04 07:47:58;;;;;;;;;;;;;;;21.10;40.79;100075.94;5142461;27;19911;-46
2024/01/04 07:50:24;;;;;;;;;;;;;;;21.11;40.46;100078.47;5144129;27;19922;-47
2024/01/04 07:52:49;;;;;;;;;;;;;;;21.12;40.56;100082.00;5132745;27;19912;-46
2024/01/04 07:55:14;;;;;;;;;;;;;;;21.13;40.58;100086.38;5134626;27;19937;-47
2024/01/04 07:57:39;;;;;;;;;;;;;;;21.13;40.36;100080.97;5134181;27;19927;-46
2024/01/04 08:00:05;;;;;;;;;;;;;;;21.13;40.39;100087.19;5131075;27;19919;-46
2024/01/04 08:02:32;;;;;;;;;;;;;;;21.14;40.69;100090.72;5138920;27;19927;-47
2024/01/04 08:04:57;;;;;;;;;;;;;;;21.15;40.45;100081.56;5133898;27;19911;-47
2024/01/04 08:07:23;;;;;;;;;;;;;;;21.14;40.39;100090.72;5135120;27;19919;-48
2024/01/04 08:09:48;;;;;;;;;;;;;;;21.15;40.33;100103.19;5135790;27;20445;-49
2024/01/04 08:12:13;;;;;;;;;;;;;;;21.15;40.48;100101.34;5133651;27;19915;-46
2024/01/04 08:14:38;;;;;;;;;;;;;;;21.15;40.64;100104.06;5132771;27;19915;-46
2024/01/04 08:17:04;;;;;;;;;;;;;;;21.17;40.43;100106.56;5140652;27;19927;-45
2024/01/04 08:19:30;;;;;;;;;;;;;;;21.16;40.33;100102.19;5140920;27;19947;-44
2024/01/04 08:21:55;;;;;;;;;;;;;;;21.19;40.59;100113.41;5138779;27;20252;-45
2024/01/04 08:24:20;;;;;;;;;;;;;;;21.19;40.62;100116.09;5137388;27;19926;-46
2024/01/04 08:26:46;;;;;;;;;;;;;;;21.20;40.37;100125.06;5142129;27;19912;-45
2024/01/04 08:29:11;;;;;;;;;;;;;;;21.21;40.48;100127.56;5135953;27;19920;-45
2024/01/04 08:31:36;;;;;;;;;;;;;;;21.22;40.32;100123.00;5134282;27;19911;-46
2024/01/04 08:34:01;;;;;;;;;;;;;;;21.21;40.58;100126.72;5141233;27;19919;-46
2024/01/04 08:36:26;;;;;;;;;;;;;;;21.22;40.46;100136.50;5135458;27;19911;-44
2024/01/04 08:38:52;;;;;;;;;;;;;;;21.23;40.32;100135.47;5136743;27;19920;-45
2024/01/04 08:41:17;;;;;;;;;;;;;;;21.24;40.57;100139.84;5144101;27;19922;-46
2024/01/04 08:43:42;;;;;;;;;;;;;;;21.27;40.38;100138.59;5137809;27;19912;-47
2024/01/04 08:46:07;;;;;;;;;;;;;;;21.26;40.55;100132.34;5139570;27;19915;-49
2024/01/04 08:48:33;;;;;;;;;;;;;;;21.27;40.14;100144.00;5143414;27;19918;-47
2024/01/04 08:50:59;;;;;;;;;;;;;;;21.27;40.24;100135.91;5144913;27;19916;-47
2024/01/04 08:53:24;;;;;;;;;;;;;;;21.28;40.48;100138.41;5137122;27;19915;-46
2024/01/04 08:55:49;;;;;;;;;;;;;;;21.28;40.30;100134.84;5123781;27;19932;-45
2024/01/04 08:58:15;;;;;;;;;;;;;;;21.28;40.14;100141.13;5137703;27;19923;-47
2024/01/04 09:00:40;;;;;;;;;;;;;;;21.29;40.18;100141.94;5142030;27;19915;-48
2024/01/04 09:03:05;;;;;;;;;;;;;;;21.29;40.41;100136.53;5138296;27;19958;-50
2024/01/04 09:05:31;;;;;;;;;;;;;;;21.21;40.47;100124.84;5137136;27;19942;-46
2024/01/04 09:07:56;;;;;;;;;;;;;;;21.28;40.25;100148.38;5138371;27;19919;-47
2024/01/04 09:10:21;;;;;;;;;;;;;;;21.28;40.20;100153.78;5134563;27;19919;-47
2024/01/04 09:12:47;;;;;;;;;;;;;;;21.28;40.29;100167.28;5133765;27;20328;-46
2024/01/04 09:15:12;;;;;;;;;;;;;;;21.25;40.19;100165.84;5120183;27;19930;-47
2024/01/04 09:17:37;;;;;;;;;;;;;;;21.24;40.28;100169.59;5135438;27;19973;-46
2024/01/04 09:20:03;;;;;;;;;;;;;;;21.24;40.16;100172.31;5133867;27;19912;-46
2024/01/04 09:22:28;;;;;;;;;;;;;;;21.25;40.14;100181.25;5132546;27;20385;-46
2024/01/04 09:24:54;;;;;;;;;;;;;;;21.25;40.38;100176.66;5137081;27;19915;-46
2024/01/04 09:27:19;;;;;;;;;;;;;;;21.24;40.27;100177.72;5139017;27;19911;-45
2024/01/04 09:29:47;;;;;;;;;;;;;;;21.23;40.13;100179.53;5142349;27;19919;-46
2024/01/04 09:32:12;;;;;;;;;;;;;;;21.23;40.42;100179.53;5138016;27;19985;-46
2024/01/04 09:34:37;;;;;;;;;;;;;;;21.25;40.16;100181.25;5128824;27;19920;-46
2024/01/04 09:37:02;;;;;;;;;;;;;;;21.25;40.12;100184.78;5118367;27;20287;-46
2024/01/04 09:39:28;;;;;;;;;;;;;;;21.24;40.37;100185.81;5135924;27;19938;-45
2024/01/04 09:41:53;;;;;;;;;;;;;;;21.23;40.17;100190.34;5136771;27;20255;-45
2024/01/04 09:44:18;;;;;;;;;;;;;;;21.23;40.30;100200.34;5137218;27;19912;-45
2024/01/04 09:46:43;;;;;;;;;;;;;;;21.22;40.39;100196.81;5118936;27;20145;-45
2024/01/04 09:49:09;;;;;;;;;;;;;;;21.23;40.30;100209.28;5134086;27;19916;-45
2024/01/04 09:51:38;;;;;;;;;;;;;;;21.22;40.20;100210.31;5142188;27;20324;-46
2024/01/04 09:54:04;;;;;;;;;;;;;;;21.22;40.47;100215.72;5137730;27;19918;-48
2024/01/04 09:56:30;;;;;;;;;;;;;;;21.21;40.49;100214.06;5133895;27;19950;-46
2024/01/04 09:58:55;;;;;;;;;;;;;;;21.21;40.01;100216.78;5137091;27;19919;-46
2024/01/04 10:01:23;;;;;;;;;;;;;;;21.21;40.24;100232.16;5137995;27;19933;-46
2024/01/04 10:03:49;;;;;;;;;;;;;;;21.20;40.00;100236.75;5126777;27;19937;-45
2024/01/04 10:06:30;;;;;;;;;;;;;;;21.19;40.24;100235.06;5142802;27;19912;-45
2024/01/04 10:09:18;;;;;;;;;;;;;;;21.18;40.23;100241.50;5141029;27;19911;-45
2024/01/04 10:12:05;;;;;;;;;;;;;;;21.17;40.22;100239.00;5135820;27;19954;-45
2024/01/04 10:14:30;;;;;;;;;;;;;;;21.17;39.92;100241.72;5137417;27;19955;-47
2024/01/04 10:16:59;;;;;;;;;;;;;;;21.16;40.20;100232.78;5141228;27;20305;-44
2024/01/04 10:19:25;;;;;;;;;;;;;;;21.16;40.08;100238.19;5137862;27;20456;-44
2024/01/04 10:21:50;;;;;;;;;;;;;;;21.15;40.19;100236.53;5139000;27;19919;-45
2024/01/04 10:24:22;;;;;;;;;;;;;;;21.14;39.96;100237.53;5137953;27;19912;-44
2024/01/04 10:26:57;;;;;;;;;;;;;;;21.16;40.20;100245.47;5101679;27;19960;-47
2024/01/04 10:29:35;;;;;;;;;;;;;;;21.16;39.91;100245.47;5132011;27;19931;-46
2024/01/04 10:32:03;;;;;;;;;;;;;;;21.16;40.06;100242.75;5139204;27;19933;-45
2024/01/04 10:34:29;;;;;;;;;;;;;;;21.17;40.17;100255.22;5137279;27;19938;-45
2024/01/04 10:36:57;;;;;;;;;;;;;;;21.17;39.87;100253.34;5139516;27;19916;-45
2024/01/04 10:39:22;;;;;;;;;;;;;;;21.17;39.90;100247.94;5129761;27;19945;-47
2024/01/04 10:41:54;;;;;;;;;;;;;;;21.18;39.84;100255.03;5116159;27;19972;-46
2024/01/04 10:44:20;;;;;;;;;;;;;;;21.19;39.77;100253.16;5138964;27;19911;-45
2024/01/04 10:46:46;;;;;;;;;;;;;;;21.21;39.93;100251.09;5135177;27;19931;-44
2024/01/04 10:49:11;;;;;;;;;;;;;;;21.22;39.86;100255.47;5134707;27;19911;-46
2024/01/04 10:51:36;;;;;;;;;;;;;;;21.23;39.72;100254.41;5103310;27;19911;-45
2024/01/04 10:54:01;;;;;;;;;;;;;;;21.25;39.70;100256.94;5127525;27;20426;-44
2024/01/04 10:56:31;;;;;;;;;;;;;;;21.25;39.99;100257.78;5118189;28;19912;-47
2024/01/04 10:59:00;;;;;;;;;;;;;;;21.28;39.83;100261.94;5128955;27;19924;-44
2024/01/04 11:01:28;;;;;;;;;;;;;;;21.29;39.91;100260.91;5131040;27;20044;-45
2024/01/04 11:03:54;;;;;;;;;;;;;;;21.31;40.48;100264.25;5132273;27;19949;-46
2024/01/04 11:06:19;;;;;;;;;;;;;;;21.33;40.53;100265.75;5130049;27;19919;-50
2024/01/04 11:08:44;;;;;;;;;;;;;;;21.36;40.69;100272.63;5126618;27;19949;-47
2024/01/04 11:11:10;;;;;;;;;;;;;;;21.41;40.29;100260.19;5123626;27;19992;-49
2024/01/04 11:13:35;;;;;;;;;;;;;;;21.44;40.16;100267.03;5132496;27;19919;-49
2024/01/04 11:16:01;;;;;;;;;;;;;;;21.46;40.22;100265.81;5129198;27;20485;-47
2024/01/04 11:18:29;;;;;;;;;;;;;;;21.49;40.08;100261.84;5130918;27;19927;-45
2024/01/04 11:21:02;;;;;;;;;;;;;;;21.51;39.78;100269.78;5119156;27;19918;-51
2024/01/04 11:23:47;;;;;;;;;;;;;;;21.52;39.87;100258.75;5128918;28;19912;-50
2024/01/04 11:26:12;;;;;;;;;;;;;;;21.52;40.06;100261.47;5131891;28;19924;-48
2024/01/04 11:28:37;;;;;;;;;;;;;;;21.54;40.09;100266.69;5132434;28;19916;-45
2024/01/04 11:31:03;;;;;;;;;;;;;;;21.56;40.03;100264.59;5127549;28;19945;-47
2024/01/04 11:33:28;;;;;;;;;;;;;;;21.56;39.83;100260.03;5130068;28;20270;-46
2024/01/04 11:35:53;;;;;;;;;;;;;;;21.59;39.88;100259.63;5130423;28;20282;-46
2024/01/04 11:38:21;;;;;;;;;;;;;;;21.62;39.64;100261.06;5133871;28;20294;-49
2024/01/04 11:40:48;;;;;;;;;;;;;;;21.64;39.78;100267.13;5125084;28;19916;-48
2024/01/04 11:43:14;;;;;;;;;;;;;;;21.64;39.62;100259.84;5131963;28;19923;-46
2024/01/04 11:45:43;;;;;;;;;;;;;;;21.65;39.65;100266.09;5136953;28;20308;-47
2024/01/04 11:48:10;;;;;;;;;;;;;;;21.67;39.80;100254.03;5121098;28;19936;-47
2024/01/04 11:50:35;;;;;;;;;;;;;;;21.69;39.63;100259.25;5134513;28;19922;-51
2024/01/04 11:53:06;;;;;;;;;;;;;;;21.71;39.79;100258.00;5120038;28;20110;-47
2024/01/04 11:55:33;;;;;;;;;;;;;;;21.74;39.83;100259.47;5133189;28;19922;-48
2024/01/04 11:58:05;;;;;;;;;;;;;;;21.77;39.66;100271.75;5131595;28;19928;-49
2024/01/04 12:00:33;;;;;;;;;;;;;;;21.78;39.56;100266.13;5133577;28;19918;-46
2024/01/04 12:03:00;;;;;;;;;;;;;;;21.81;39.88;100267.63;5140419;28;19916;-49
2024/01/04 12:05:25;;;;;;;;;;;;;;;21.82;39.66;100267.41;5132449;28;19938;-46
2024/01/04 12:07:50;;;;;;;;;;;;;;;21.85;39.53;100266.16;5121902;28;19911;-45
2024/01/04 12:10:16;;;;;;;;;;;;;;;21.86;39.65;100257.84;5131559;28;19916;-50
2024/01/04 12:12:41;;;;;;;;;;;;;;;21.89;39.88;100256.59;5133373;28;19911;-46
2024/01/04 12:15:08;;;;;;;;;;;;;;;21.89;39.69;100268.25;5134326;28;19915;-46
2024/01/04 12:17:33;;;;;;;;;;;;;;;21.91;39.73;100262.63;5135108;28;20366;-47
2024/01/04 12:19:58;;;;;;;;;;;;;;;21.93;39.31;100250.56;5130709;28;19922;-46
2024/01/04 12:22:23;;;;;;;;;;;;;;;21.96;39.52;100254.72;5131460;28;19916;-48
2024/01/04 12:24:48;;;;;;;;;;;;;;;22.01;39.15;100243.31;5135305;28;19935;-45
2024/01/04 12:27:13;;;;;;;;;;;;;;;22.01;39.50;100246.03;5129029;28;19911;-48
2024/01/04 12:29:42;;;;;;;;;;;;;;;22.02;39.48;100253.94;5128304;27;19919;-54
2024/01/04 12:32:07;;;;;;;;;;;;;;;22.06;39.39;100251.66;5122572;27;19924;-54
2024/01/04 12:34:32;;;;;;;;;;;;;;;22.11;39.67;100262.69;5140619;27;19922;-51